Time,TemperatureF,DewpointF,PressureIn,WindDirection,WindDirectionDegrees,WindSpeedMPH,WindSpeedGustMPH,Humidity,HourlyPrecipIn,Conditions,Clouds,dailyrainin,SolarRadiationWatts/m^2,SoftwareType,DateUTC
2013-06-29 00:11:00,70.5,53.0,29.90,East,80,0.0,0.0,54,0.00,,,0.00,0,weatherlink.com 1.10,2013-06-29 05:11:00,
2013-06-29 01:58:00,67.8,53.0,29.91,East,80,0.0,0.0,59,0.00,,,0.00,0,weatherlink.com 1.10,2013-06-29 06:58:00,
2013-06-29 02:12:00,66.8,53.0,29.91,East,80,0.0,0.0,61,0.00,,,0.00,0,weatherlink.com 1.10,2013-06-29 07:12:00,
2013-06-29 02:27:00,66.4,53.0,29.92,East,80,0.0,0.0,62,0.00,,,0.00,0,weatherlink.com 1.10,2013-06-29 07:27:00,
2013-06-29 02:42:00,65.2,53.0,29.92,East,80,0.0,0.0,64,0.00,,,0.00,0,weatherlink.com 1.10,2013-06-29 07:42:00,
2013-06-29 02:57:00,64.6,52.0,29.92,East,80,0.0,0.0,65,0.00,,,0.00,0,weatherlink.com 1.10,2013-06-29 07:57:00,
2013-06-29 03:13:00,65.3,53.0,29.93,SSW,210,0.0,1.0,64,0.00,,,0.00,0,weatherlink.com 1.10,2013-06-29 08:13:00,
2013-06-29 03:27:00,65.1,53.0,29.94,WSW,240,0.0,0.0,65,0.00,,,0.00,0,weatherlink.com 1.10,2013-06-29 08:27:00,
2013-06-29 03:42:00,63.8,53.0,29.93,WSW,240,0.0,0.0,67,0.00,,,0.00,0,weatherlink.com 1.10,2013-06-29 08:42:00,
2013-06-29 03:57:00,63.3,53.0,29.95,WSW,241,0.0,1.0,69,0.00,,,0.00,0,weatherlink.com 1.10,2013-06-29 08:57:00,
2013-06-29 04:12:00,65.0,54.0,29.94,West,279,0.0,4.0,68,0.00,,,0.00,0,weatherlink.com 1.10,2013-06-29 09:12:00,
2013-06-29 04:27:00,65.2,54.0,29.94,West,264,0.0,2.0,68,0.00,,,0.00,0,weatherlink.com 1.10,2013-06-29 09:27:00,
2013-06-29 04:43:00,65.3,55.0,29.94,West,264,0.0,0.0,69,0.00,,,0.00,0,weatherlink.com 1.10,2013-06-29 09:43:00,
2013-06-29 04:58:00,65.2,54.0,29.94,West,264,0.0,1.0,68,0.00,,,0.00,0,weatherlink.com 1.10,2013-06-29 09:58:00,
2013-06-29 05:13:00,64.7,54.0,29.94,West,264,0.0,0.0,69,0.00,,,0.00,0,weatherlink.com 1.10,2013-06-29 10:13:00,
2013-06-29 05:28:00,64.1,55.0,29.94,West,264,0.0,0.0,71,0.00,,,0.00,0,weatherlink.com 1.10,2013-06-29 10:28:00,
2013-06-29 05:43:00,64.1,55.0,29.94,West,264,0.0,0.0,71,0.00,,,0.00,0,weatherlink.com 1.10,2013-06-29 10:43:00,
2013-06-29 05:58:00,63.3,54.0,29.94,West,264,0.0,0.0,72,0.00,,,0.00,0,weatherlink.com 1.10,2013-06-29 10:58:00,
2013-06-29 06:13:00,63.5,54.0,29.94,West,264,0.0,0.0,72,0.00,,,0.00,14,weatherlink.com 1.10,2013-06-29 11:13:00,
2013-06-29 06:28:00,63.8,55.0,29.94,West,264,0.0,0.0,72,0.00,,,0.00,23,weatherlink.com 1.10,2013-06-29 11:28:00,
2013-06-29 06:43:00,64.2,55.0,29.94,West,264,0.0,1.0,71,0.00,,,0.00,32,weatherlink.com 1.10,2013-06-29 11:43:00,
2013-06-29 06:58:00,64.2,55.0,29.94,West,265,0.0,0.0,71,0.00,,,0.00,40,weatherlink.com 1.10,2013-06-29 11:58:00,
2013-06-29 07:13:00,65.5,55.0,29.93,West,265,0.0,0.0,69,0.00,,,0.00,70,weatherlink.com 1.10,2013-06-29 12:13:00,
2013-06-29 07:28:00,66.8,55.0,29.94,West,265,0.0,0.0,67,0.00,,,0.00,114,weatherlink.com 1.10,2013-06-29 12:28:00,
2013-06-29 07:43:00,69.0,56.0,29.93,West,265,0.0,0.0,63,0.00,,,0.00,165,weatherlink.com 1.10,2013-06-29 12:43:00,
2013-06-29 07:58:00,70.6,56.0,29.93,West,265,0.0,1.0,61,0.00,,,0.00,209,weatherlink.com 1.10,2013-06-29 12:58:00,
2013-06-29 08:13:00,72.1,57.0,29.93,NNE,17,0.0,0.0,59,0.00,,,0.00,246,weatherlink.com 1.10,2013-06-29 13:13:00,
2013-06-29 08:28:00,72.6,57.0,29.93,NNE,17,0.0,1.0,58,0.00,,,0.00,322,weatherlink.com 1.10,2013-06-29 13:28:00,
2013-06-29 08:43:00,75.2,57.0,29.93,NW,321,0.0,1.0,53,0.00,,,0.00,355,weatherlink.com 1.10,2013-06-29 13:43:00,
2013-06-29 08:58:00,75.8,56.0,29.93,NW,319,0.0,1.0,51,0.00,,,0.00,202,weatherlink.com 1.10,2013-06-29 13:58:00,
2013-06-29 09:13:00,76.2,55.0,29.93,NW,318,0.0,1.0,48,0.00,,,0.00,445,weatherlink.com 1.10,2013-06-29 14:13:00,
2013-06-29 09:28:00,78.0,55.0,29.92,NW,304,0.0,1.0,45,0.00,,,0.00,483,weatherlink.com 1.10,2013-06-29 14:28:00,
2013-06-29 09:43:00,78.9,55.0,29.93,NNE,26,0.0,2.0,44,0.00,,,0.00,557,weatherlink.com 1.10,2013-06-29 14:43:00,
2013-06-29 09:58:00,80.2,54.0,29.92,NE,39,0.0,5.0,41,0.00,,,0.00,548,weatherlink.com 1.10,2013-06-29 14:58:00,
2013-06-29 10:14:00,80.5,54.0,29.92,NE,38,0.0,4.0,40,0.00,,,0.00,631,weatherlink.com 1.10,2013-06-29 15:14:00,
2013-06-29 10:29:00,82.3,55.0,29.92,NW,310,2.0,10.0,39,0.00,,,0.00,650,weatherlink.com 1.10,2013-06-29 15:29:00,
2013-06-29 10:44:00,83.8,55.0,29.91,NNW,329,6.0,8.0,37,0.00,,,0.00,684,weatherlink.com 1.10,2013-06-29 15:44:00,
2013-06-29 10:59:00,84.4,54.0,29.91,NE,55,2.0,9.0,35,0.00,,,0.00,721,weatherlink.com 1.10,2013-06-29 15:59:00,
2013-06-29 11:14:00,85.0,54.0,29.91,NNE,19,1.0,9.0,35,0.00,,,0.00,754,weatherlink.com 1.10,2013-06-29 16:14:00,
2013-06-29 11:29:00,85.8,56.0,29.91,West,281,0.0,9.0,36,0.00,,,0.00,788,weatherlink.com 1.10,2013-06-29 16:29:00,
2013-06-29 11:44:00,85.9,55.0,29.91,NNE,33,5.0,11.0,35,0.00,,,0.00,810,weatherlink.com 1.10,2013-06-29 16:44:00,
2013-06-29 11:59:00,85.7,55.0,29.91,WNW,296,3.0,9.0,35,0.00,,,0.00,838,weatherlink.com 1.10,2013-06-29 16:59:00,
2013-06-29 12:14:00,86.5,56.0,29.91,NNW,335,1.0,8.0,35,0.00,,,0.00,860,weatherlink.com 1.10,2013-06-29 17:14:00,
2013-06-29 12:29:00,86.7,55.0,29.91,NE,49,0.0,8.0,34,0.00,,,0.00,882,weatherlink.com 1.10,2013-06-29 17:29:00,
2013-06-29 12:44:00,87.7,56.0,29.91,WNW,294,4.0,10.0,34,0.00,,,0.00,918,weatherlink.com 1.10,2013-06-29 17:44:00,
2013-06-29 12:59:00,87.4,56.0,29.90,NW,311,0.0,9.0,34,0.00,,,0.00,949,weatherlink.com 1.10,2013-06-29 17:59:00,
2013-06-29 13:14:00,86.6,55.0,29.90,NNE,22,1.0,10.0,34,0.00,,,0.00,357,weatherlink.com 1.10,2013-06-29 18:14:00,
2013-06-29 13:29:00,85.2,56.0,29.90,NNW,335,5.0,9.0,37,0.00,,,0.00,352,weatherlink.com 1.10,2013-06-29 18:29:00,
2013-06-29 13:44:00,86.7,56.0,29.89,NW,315,0.0,13.0,35,0.00,,,0.00,1071,weatherlink.com 1.10,2013-06-29 18:44:00,
2013-06-29 13:59:00,86.7,55.0,29.89,NE,48,5.0,12.0,34,0.00,,,0.00,316,weatherlink.com 1.10,2013-06-29 18:59:00,
2013-06-29 14:14:00,86.9,55.0,29.89,NE,55,4.0,9.0,34,0.00,,,0.00,875,weatherlink.com 1.10,2013-06-29 19:14:00,
2013-06-29 14:29:00,87.4,56.0,29.89,ENE,75,7.0,10.0,34,0.00,,,0.00,439,weatherlink.com 1.10,2013-06-29 19:29:00,
2013-06-29 14:44:00,86.8,57.0,29.88,NNW,348,2.0,11.0,36,0.00,,,0.00,1085,weatherlink.com 1.10,2013-06-29 19:44:00,
2013-06-29 14:59:00,86.1,56.0,29.88,ENE,61,7.0,12.0,36,0.00,,,0.00,290,weatherlink.com 1.10,2013-06-29 19:59:00,
2013-06-29 15:14:00,89.2,57.0,29.87,ENE,61,2.0,11.0,34,0.00,,,0.00,905,weatherlink.com 1.10,2013-06-29 20:14:00,
2013-06-29 15:29:00,88.4,57.0,29.87,ENE,65,0.0,11.0,35,0.00,,,0.00,900,weatherlink.com 1.10,2013-06-29 20:29:00,
2013-06-29 15:44:00,87.7,56.0,29.87,WNW,299,0.0,13.0,34,0.00,,,0.00,974,weatherlink.com 1.10,2013-06-29 20:44:00,
2013-06-29 15:59:00,88.3,57.0,29.86,WNW,303,2.0,11.0,34,0.00,,,0.00,875,weatherlink.com 1.10,2013-06-29 20:59:00,
2013-06-29 16:14:00,87.9,56.0,29.86,NNE,33,7.0,14.0,34,0.00,,,0.00,874,weatherlink.com 1.10,2013-06-29 21:14:00,
2013-06-29 16:29:00,87.9,56.0,29.86,ENE,65,1.0,8.0,34,0.00,,,0.00,761,weatherlink.com 1.10,2013-06-29 21:29:00,
2013-06-29 16:44:00,89.3,57.0,29.85,NE,43,0.0,12.0,33,0.00,,,0.00,738,weatherlink.com 1.10,2013-06-29 21:44:00,
2013-06-29 16:59:00,89.0,56.0,29.84,ENE,75,7.0,13.0,33,0.00,,,0.00,675,weatherlink.com 1.10,2013-06-29 21:59:00,
2013-06-29 17:14:00,89.2,57.0,29.84,NE,44,5.0,10.0,33,0.00,,,0.00,643,weatherlink.com 1.10,2013-06-29 22:14:00,
2013-06-29 17:29:00,85.8,56.0,29.84,NNW,342,3.0,9.0,36,0.00,,,0.00,149,weatherlink.com 1.10,2013-06-29 22:29:00,
2013-06-29 17:45:00,87.9,55.0,29.84,ESE,109,0.0,17.0,33,0.00,,,0.00,573,weatherlink.com 1.10,2013-06-29 22:45:00,
2013-06-29 18:00:00,88.3,56.0,29.83,NE,46,4.0,11.0,33,0.00,,,0.00,585,weatherlink.com 1.10,2013-06-29 23:00:00,
2013-06-29 18:15:00,86.1,55.0,29.83,NE,38,6.0,12.0,35,0.00,,,0.00,178,weatherlink.com 1.10,2013-06-29 23:15:00,
2013-06-29 18:30:00,85.0,55.0,29.84,NE,48,0.0,14.0,36,0.00,,,0.00,114,weatherlink.com 1.10,2013-06-29 23:30:00,
2013-06-29 18:45:00,85.9,55.0,29.83,ENE,57,1.0,9.0,35,0.00,,,0.00,385,weatherlink.com 1.10,2013-06-29 23:45:00,
2013-06-29 19:00:00,85.4,56.0,29.83,ENE,66,3.0,12.0,36,0.00,,,0.00,338,weatherlink.com 1.10,2013-06-30 00:00:00,
2013-06-29 19:15:00,84.4,55.0,29.84,ENE,61,5.0,10.0,37,0.00,,,0.00,294,weatherlink.com 1.10,2013-06-30 00:15:00,
2013-06-29 19:30:00,83.9,56.0,29.84,NE,46,4.0,12.0,38,0.00,,,0.00,244,weatherlink.com 1.10,2013-06-30 00:30:00,
2013-06-29 19:45:00,83.1,55.0,29.85,ENE,60,1.0,9.0,38,0.00,,,0.00,190,weatherlink.com 1.10,2013-06-30 00:45:00,
2013-06-29 20:00:00,82.1,55.0,29.85,ENE,67,3.0,12.0,39,0.00,,,0.00,139,weatherlink.com 1.10,2013-06-30 01:00:00,
2013-06-29 20:15:00,81.2,55.0,29.85,ENE,57,4.0,9.0,40,0.00,,,0.00,91,weatherlink.com 1.10,2013-06-30 01:15:00,
2013-06-29 20:30:00,80.2,54.0,29.86,ENE,63,4.0,9.0,40,0.00,,,0.00,53,weatherlink.com 1.10,2013-06-30 01:30:00,
2013-06-29 20:45:00,79.0,53.0,29.86,ENE,74,1.0,8.0,41,0.00,,,0.00,23,weatherlink.com 1.10,2013-06-30 01:45:00,
2013-06-29 21:00:00,77.6,52.0,29.86,ENE,71,2.0,9.0,41,0.00,,,0.00,12,weatherlink.com 1.10,2013-06-30 02:00:00,
2013-06-29 21:15:00,76.3,51.0,29.87,ENE,63,3.0,8.0,41,0.00,,,0.00,0,weatherlink.com 1.10,2013-06-30 02:15:00,
2013-06-29 21:30:00,74.4,50.0,29.88,ENE,69,0.0,5.0,43,0.00,,,0.00,0,weatherlink.com 1.10,2013-06-30 02:30:00,
2013-06-29 21:45:00,72.2,50.0,29.89,ENE,68,0.0,3.0,46,0.00,,,0.00,0,weatherlink.com 1.10,2013-06-30 02:45:00,
2013-06-29 22:00:00,71.6,50.0,29.89,ENE,72,0.0,4.0,46,0.00,,,0.00,0,weatherlink.com 1.10,2013-06-30 03:00:00,
2013-06-29 22:15:00,70.0,49.0,29.90,ENE,71,0.0,0.0,48,0.00,,,0.00,0,weatherlink.com 1.10,2013-06-30 03:15:00,
2013-06-29 22:30:00,69.1,49.0,29.91,ENE,73,0.0,1.0,49,0.00,,,0.00,0,weatherlink.com 1.10,2013-06-30 03:30:00,
2013-06-29 22:45:00,68.5,48.0,29.91,ENE,76,0.0,3.0,49,0.00,,,0.00,0,weatherlink.com 1.10,2013-06-30 03:45:00,
2013-06-29 23:00:00,67.5,49.0,29.92,ENE,73,1.0,4.0,51,0.00,,,0.00,0,weatherlink.com 1.10,2013-06-30 04:00:00,
2013-06-29 23:15:00,67.3,48.0,29.92,ENE,67,0.0,3.0,51,0.00,,,0.00,0,weatherlink.com 1.10,2013-06-30 04:15:00,
2013-06-29 23:30:00,66.9,48.0,29.92,ENE,71,0.0,3.0,51,0.00,,,0.00,0,weatherlink.com 1.10,2013-06-30 04:30:00,
2013-06-29 23:45:00,66.5,48.0,29.93,ENE,63,3.0,3.0,52,0.00,,,0.00,0,weatherlink.com 1.10,2013-06-30 04:45:00,